createdAt,value
2018-07-19T00:02:18.363Z,22.58
2018-07-19T00:04:46.580Z,22.56
2018-07-19T00:07:14.792Z,22.53
2018-07-19T00:09:42.996Z,22.51
2018-07-19T00:12:11.218Z,22.50
2018-07-19T00:14:39.448Z,22.50
2018-07-19T00:17:08.057Z,22.53
2018-07-19T00:19:36.295Z,22.56
2018-07-19T00:22:04.520Z,22.55
2018-07-19T00:24:32.740Z,22.54
2018-07-19T00:27:00.965Z,22.53
2018-07-19T00:29:29.182Z,22.49
2018-07-19T00:31:57.403Z,22.46
2018-07-19T00:34:25.613Z,22.45
2018-07-19T00:36:53.836Z,22.44
2018-07-19T00:39:22.077Z,22.42
2018-07-19T00:41:50.281Z,22.37
2018-07-19T00:44:18.526Z,22.33
2018-07-19T00:46:47.032Z,22.31
2018-07-19T00:49:15.288Z,22.30
2018-07-19T00:51:43.513Z,22.28
2018-07-19T00:54:11.724Z,22.25
2018-07-19T00:56:39.981Z,22.21
2018-07-19T00:59:08.184Z,22.23
2018-07-19T01:01:36.472Z,22.24
2018-07-19T01:04:04.712Z,22.23
2018-07-19T01:06:32.929Z,22.21
2018-07-19T01:09:01.138Z,22.17
2018-07-19T01:11:29.344Z,22.14
2018-07-19T01:13:57.572Z,22.16
2018-07-19T01:16:25.789Z,22.18
2018-07-19T01:18:54.014Z,22.19
2018-07-19T01:21:22.265Z,22.19
2018-07-19T01:23:50.476Z,22.19
2018-07-19T01:26:18.698Z,22.16
2018-07-19T01:28:46.912Z,22.12
2018-07-19T01:31:15.144Z,22.08
2018-07-19T01:33:43.368Z,22.08
2018-07-19T01:36:11.589Z,22.07
2018-07-19T01:38:39.827Z,22.10
2018-07-19T01:41:19.289Z,22.11
2018-07-19T01:43:47.541Z,22.09
2018-07-19T01:46:15.752Z,22.07
2018-07-19T01:48:43.970Z,22.08
2018-07-19T01:51:12.184Z,22.10
2018-07-19T01:53:40.428Z,22.10
2018-07-19T01:56:08.637Z,22.12
2018-07-19T01:58:36.854Z,22.10
2018-07-19T02:01:05.087Z,22.08
2018-07-19T02:03:33.309Z,22.02
2018-07-19T02:06:01.517Z,21.98
2018-07-19T02:08:29.749Z,21.96
2018-07-19T02:10:57.976Z,21.93
2018-07-19T02:13:26.173Z,21.89
2018-07-19T02:15:54.656Z,21.85
2018-07-19T02:18:22.852Z,21.80
2018-07-19T02:20:51.064Z,21.74
2018-07-19T02:23:19.281Z,21.69
2018-07-19T02:25:47.488Z,21.65
2018-07-19T02:28:15.705Z,21.60
2018-07-19T02:30:43.926Z,21.60
2018-07-19T02:33:12.149Z,21.58
2018-07-19T02:35:40.348Z,21.55
2018-07-19T02:38:08.561Z,21.52
2018-07-19T02:40:36.780Z,21.47
2018-07-19T02:43:05.057Z,21.44
2018-07-19T02:45:33.273Z,21.46
2018-07-19T02:48:01.489Z,21.49
2018-07-19T02:50:29.720Z,21.52
2018-07-19T02:52:57.927Z,21.54
2018-07-19T02:55:26.141Z,21.56
2018-07-19T02:57:54.376Z,21.56
2018-07-19T03:00:22.620Z,21.57
2018-07-19T03:02:50.829Z,21.56
2018-07-19T03:05:19.056Z,21.54
2018-07-19T03:07:47.316Z,21.53
2018-07-19T03:10:15.504Z,21.52
2018-07-19T03:12:43.734Z,21.49
2018-07-19T03:15:11.949Z,21.48
2018-07-19T03:17:40.162Z,21.46
2018-07-19T03:20:08.370Z,21.44
2018-07-19T03:22:36.617Z,21.38
2018-07-19T03:25:04.861Z,21.34
2018-07-19T03:27:33.166Z,21.29
2018-07-19T03:30:01.361Z,21.27
2018-07-19T03:32:29.580Z,21.24
2018-07-19T03:34:57.789Z,21.20
2018-07-19T03:37:26.013Z,21.17
2018-07-19T03:39:54.232Z,21.13
2018-07-19T03:42:22.432Z,21.12
2018-07-19T03:44:50.652Z,21.10
2018-07-19T03:47:18.853Z,21.06
2018-07-19T03:49:47.084Z,21.03
2018-07-19T03:52:16.200Z,21.01
2018-07-19T03:54:44.453Z,21.03
2018-07-19T03:57:12.664Z,21.05
2018-07-19T03:59:40.876Z,21.10
2018-07-19T04:02:09.112Z,21.13
2018-07-19T04:04:37.362Z,21.15
2018-07-19T04:07:05.992Z,21.17
2018-07-19T04:09:34.193Z,21.18
2018-07-19T04:12:02.413Z,21.19
2018-07-19T04:14:30.617Z,21.18
2018-07-19T04:16:58.887Z,21.14
2018-07-19T04:19:27.049Z,21.10
2018-07-19T04:21:55.270Z,21.06
2018-07-19T04:24:23.485Z,21.02
2018-07-19T04:26:51.856Z,21.01
2018-07-19T04:29:21.516Z,21.04
2018-07-19T04:31:49.729Z,21.02
2018-07-19T04:34:17.989Z,21.00
2018-07-19T04:36:46.207Z,20.98
2018-07-19T04:39:14.433Z,20.97
2018-07-19T04:41:42.645Z,20.97
2018-07-19T04:44:10.872Z,20.94
2018-07-19T04:46:39.108Z,20.95
2018-07-19T04:49:07.353Z,20.95
2018-07-19T04:51:35.576Z,20.96
2018-07-19T04:54:03.821Z,20.95
2018-07-19T04:56:32.100Z,20.95
2018-07-19T04:59:00.341Z,20.95
2018-07-19T05:01:28.565Z,20.97
2018-07-19T05:03:56.821Z,20.99
2018-07-19T05:06:25.042Z,20.99
2018-07-19T05:08:53.248Z,20.99
2018-07-19T05:11:21.456Z,20.99
2018-07-19T05:13:49.688Z,21.01
2018-07-19T05:16:17.913Z,21.03
2018-07-19T05:18:46.136Z,21.03
2018-07-19T05:21:14.356Z,21.04
2018-07-19T05:23:43.420Z,21.06
2018-07-19T05:26:11.691Z,21.10
2018-07-19T05:28:39.908Z,21.13
2018-07-19T05:31:08.148Z,21.15
2018-07-19T05:33:36.388Z,21.18
2018-07-19T05:36:04.617Z,21.20
2018-07-19T05:38:32.849Z,21.18
2018-07-19T05:41:01.073Z,21.19
2018-07-19T05:43:29.288Z,21.21
2018-07-19T05:45:57.561Z,21.21
2018-07-19T05:48:25.774Z,21.22
2018-07-19T05:50:54.029Z,21.23
2018-07-19T05:53:22.299Z,21.24
2018-07-19T05:55:50.500Z,21.27
2018-07-19T05:58:18.998Z,21.30
2018-07-19T06:00:47.208Z,21.34
2018-07-19T06:03:15.468Z,21.36
2018-07-19T06:05:43.850Z,21.41
2018-07-19T06:08:12.140Z,21.46
2018-07-19T06:10:40.543Z,21.49
2018-07-19T06:13:08.860Z,21.54
2018-07-19T06:15:37.080Z,21.56
2018-07-19T06:18:05.293Z,21.61
2018-07-19T06:20:33.509Z,21.66
2018-07-19T06:23:01.720Z,21.71
2018-07-19T06:25:29.968Z,21.74
2018-07-19T06:27:58.221Z,21.81
2018-07-19T06:30:26.450Z,21.86
2018-07-19T06:32:54.647Z,21.94
2018-07-19T06:35:22.868Z,22.00
2018-07-19T06:37:51.149Z,22.08
2018-07-19T06:40:19.376Z,22.17
2018-07-19T06:42:47.604Z,22.23
2018-07-19T06:45:15.873Z,22.29
2018-07-19T06:47:44.381Z,22.00
2018-07-19T06:50:12.618Z,21.81
2018-07-19T06:52:40.980Z,21.63
2018-07-19T06:55:09.224Z,21.49
2018-07-19T06:57:37.543Z,21.41
2018-07-19T07:00:07.269Z,21.38
2018-07-19T07:02:35.473Z,21.33
2018-07-19T07:05:03.769Z,21.29
2018-07-19T07:07:32.005Z,21.26
2018-07-19T07:10:00.218Z,21.27
2018-07-19T07:12:28.437Z,21.25
2018-07-19T07:14:56.679Z,21.26
2018-07-19T07:17:24.864Z,21.28
2018-07-19T07:19:53.076Z,21.31
2018-07-19T07:22:21.300Z,21.31
2018-07-19T07:24:49.548Z,21.33
2018-07-19T07:27:17.789Z,21.35
2018-07-19T07:29:46.008Z,21.41
2018-07-19T07:32:14.236Z,21.44
2018-07-19T07:34:42.486Z,21.49
2018-07-19T07:37:10.721Z,21.52
2018-07-19T07:39:38.920Z,21.56
2018-07-19T07:42:07.169Z,21.57
2018-07-19T07:44:35.401Z,21.61
2018-07-19T07:47:03.600Z,21.61
2018-07-19T07:49:31.832Z,21.66
2018-07-19T07:52:00.256Z,21.67
2018-07-19T07:54:28.489Z,21.74
2018-07-19T07:56:56.704Z,21.79
2018-07-19T07:59:24.948Z,21.80
2018-07-19T08:01:53.136Z,21.84
2018-07-19T08:04:21.392Z,21.84
2018-07-19T08:06:49.632Z,21.90
2018-07-19T08:09:17.868Z,21.96
2018-07-19T08:11:46.097Z,22.01
2018-07-19T08:14:14.297Z,22.06
2018-07-19T08:16:42.525Z,22.08
2018-07-19T08:19:10.744Z,22.10
2018-07-19T08:21:39.024Z,22.11
2018-07-19T08:24:07.197Z,22.13
2018-07-19T08:26:35.449Z,22.19
2018-07-19T08:29:03.734Z,22.23
2018-07-19T08:31:31.944Z,22.30
2018-07-19T08:34:00.165Z,22.31
2018-07-19T08:36:28.369Z,22.35
2018-07-19T08:38:56.628Z,22.42
2018-07-19T08:41:24.825Z,22.49
2018-07-19T08:43:53.060Z,22.53
2018-07-19T08:46:21.273Z,22.60
2018-07-19T08:48:49.524Z,22.66
2018-07-19T08:51:17.761Z,22.71
2018-07-19T08:53:45.981Z,22.69
2018-07-19T08:56:14.229Z,22.72
2018-07-19T08:58:42.472Z,22.77
2018-07-19T09:01:10.721Z,22.84
2018-07-19T09:03:38.937Z,22.91
2018-07-19T09:06:07.177Z,22.98
2018-07-19T09:08:35.459Z,22.99
2018-07-19T09:11:03.656Z,22.97
2018-07-19T09:13:31.880Z,22.98
2018-07-19T09:16:00.109Z,23.01
2018-07-19T09:18:28.332Z,22.99
2018-07-19T09:20:56.562Z,23.02
2018-07-19T09:23:24.776Z,23.11
2018-07-19T09:25:53.634Z,23.17
2018-07-19T09:28:21.922Z,23.23
2018-07-19T09:30:50.194Z,23.26
2018-07-19T09:33:18.420Z,23.31
2018-07-19T09:35:46.643Z,23.34
2018-07-19T09:38:14.874Z,23.37
2018-07-19T09:40:43.117Z,23.43
2018-07-19T09:43:11.353Z,23.47
2018-07-19T09:45:39.605Z,23.53
2018-07-19T09:48:07.840Z,23.60
2018-07-19T09:50:36.065Z,23.63
2018-07-19T09:53:04.316Z,23.68
2018-07-19T09:55:32.540Z,23.72
2018-07-19T09:58:00.781Z,23.77
2018-07-19T10:00:34.489Z,23.81
2018-07-19T10:03:02.718Z,23.82
2018-07-19T10:05:30.928Z,23.85
2018-07-19T10:07:59.138Z,23.94
2018-07-19T10:10:27.412Z,23.99
2018-07-19T10:12:55.669Z,24.06
2018-07-19T10:15:23.947Z,24.13
2018-07-19T10:17:52.153Z,24.08
2018-07-19T10:20:20.464Z,24.08
2018-07-19T10:22:48.777Z,24.16
2018-07-19T10:25:17.436Z,24.22
2018-07-19T10:27:45.713Z,24.31
2018-07-19T10:30:13.947Z,24.42
2018-07-19T10:32:42.171Z,24.49
2018-07-19T10:35:10.391Z,24.62
2018-07-19T10:37:38.665Z,24.72
2018-07-19T10:40:06.957Z,24.76
2018-07-19T10:42:35.188Z,24.76
2018-07-19T10:45:03.480Z,24.68
2018-07-19T10:47:31.729Z,24.72
2018-07-19T10:49:59.933Z,24.93
2018-07-19T10:52:28.168Z,25.22
2018-07-19T10:54:56.374Z,25.64
2018-07-19T10:57:24.637Z,25.82
2018-07-19T10:59:52.828Z,26.07
2018-07-19T11:02:21.069Z,26.35
2018-07-19T11:04:49.264Z,26.61
2018-07-19T11:07:17.608Z,26.94
2018-07-19T11:09:45.923Z,27.21
2018-07-19T11:12:14.056Z,27.46
2018-07-19T11:14:42.271Z,27.67
2018-07-19T11:17:10.468Z,27.90
2018-07-19T11:19:38.677Z,28.14
2018-07-19T11:22:07.108Z,28.38
2018-07-19T11:24:35.344Z,28.65
2018-07-19T11:27:03.550Z,28.80
2018-07-19T11:29:31.801Z,28.73
2018-07-19T11:32:00.013Z,28.60
2018-07-19T11:34:28.244Z,28.36
2018-07-19T11:36:56.476Z,28.07
2018-07-19T11:39:24.710Z,27.77
2018-07-19T11:41:53.405Z,27.52
2018-07-19T11:44:21.621Z,27.34
2018-07-19T11:46:49.859Z,27.18
2018-07-19T11:49:18.072Z,27.07
2018-07-19T11:51:46.305Z,26.93
2018-07-19T11:54:14.532Z,26.74
2018-07-19T11:56:42.733Z,26.43
2018-07-19T11:59:10.953Z,26.34
2018-07-19T12:01:39.204Z,26.44
2018-07-19T12:04:07.401Z,26.71
2018-07-19T12:06:35.660Z,27.02
2018-07-19T12:09:05.916Z,27.30
2018-07-19T12:11:34.177Z,27.65
2018-07-19T12:14:02.421Z,28.00
2018-07-19T12:16:30.645Z,28.30
2018-07-19T12:18:58.881Z,28.59
2018-07-19T12:21:27.113Z,28.81
2018-07-19T12:23:55.690Z,29.10
2018-07-19T12:26:23.920Z,29.28
2018-07-19T12:28:52.673Z,29.38
2018-07-19T12:31:20.933Z,29.53
2018-07-19T12:33:49.133Z,29.77
2018-07-19T12:36:17.362Z,29.97
2018-07-19T12:38:45.569Z,30.06
2018-07-19T12:41:13.804Z,30.12
2018-07-19T12:43:42.031Z,30.07
2018-07-19T12:46:10.253Z,30.08
2018-07-19T12:48:38.459Z,30.24
2018-07-19T12:51:06.703Z,30.40
2018-07-19T12:53:34.929Z,30.34
2018-07-19T12:56:03.225Z,30.17
2018-07-19T12:58:31.449Z,30.27
2018-07-19T13:00:59.665Z,30.45
2018-07-19T13:03:27.900Z,30.50
2018-07-19T13:05:56.140Z,30.47
2018-07-19T13:08:24.351Z,30.27
2018-07-19T13:10:52.564Z,30.20
2018-07-19T13:13:21.402Z,30.28
2018-07-19T13:15:49.633Z,30.32
2018-07-19T13:18:17.877Z,30.52
2018-07-19T13:20:46.105Z,30.81
2018-07-19T13:23:14.309Z,31.12
2018-07-19T13:25:42.553Z,31.41
2018-07-19T13:28:10.773Z,31.44
2018-07-19T13:30:39.027Z,31.40
2018-07-19T13:33:07.272Z,31.39
2018-07-19T13:35:35.501Z,31.40
2018-07-19T13:38:03.740Z,31.55
2018-07-19T13:40:32.067Z,31.67
2018-07-19T13:43:00.206Z,31.74
2018-07-19T13:45:28.452Z,31.76
2018-07-19T13:47:56.673Z,31.83
2018-07-19T13:50:24.918Z,31.78
2018-07-19T13:53:04.416Z,31.56
2018-07-19T13:55:32.649Z,31.38
2018-07-19T13:58:00.880Z,31.36
2018-07-19T14:00:29.097Z,31.40
2018-07-19T14:02:57.321Z,31.47
2018-07-19T14:05:25.556Z,31.58
2018-07-19T14:07:53.778Z,31.71
2018-07-19T14:10:21.997Z,31.76
2018-07-19T14:12:50.232Z,31.77
2018-07-19T14:15:18.448Z,31.79
2018-07-19T14:17:46.673Z,31.77
2018-07-19T14:20:14.877Z,31.74
2018-07-19T14:22:43.109Z,31.75
2018-07-19T14:25:11.316Z,31.84
2018-07-19T14:27:39.552Z,31.87
2018-07-19T14:30:07.837Z,31.84
2018-07-19T14:32:36.077Z,31.82
2018-07-19T14:35:04.597Z,31.72
2018-07-19T14:37:32.817Z,31.60
2018-07-19T14:40:01.053Z,31.45
2018-07-19T14:42:29.309Z,31.37
2018-07-19T14:44:57.545Z,31.35
2018-07-19T14:47:25.778Z,31.31
2018-07-19T14:49:53.986Z,31.30
2018-07-19T14:52:22.248Z,31.23
2018-07-19T14:54:50.482Z,31.11
2018-07-19T14:57:18.695Z,30.94
2018-07-19T14:59:46.924Z,30.84
2018-07-19T15:02:15.212Z,30.70
2018-07-19T15:04:43.452Z,30.58
2018-07-19T15:07:11.665Z,30.46
2018-07-19T15:09:39.921Z,30.43
2018-07-19T15:12:08.164Z,30.41
2018-07-19T15:14:36.400Z,30.43
2018-07-19T15:17:04.697Z,30.48
2018-07-19T15:19:32.913Z,30.58
2018-07-19T15:22:01.141Z,30.74
2018-07-19T15:24:29.360Z,30.96
2018-07-19T15:26:57.580Z,31.13
2018-07-19T15:29:25.784Z,31.24
2018-07-19T15:31:54.036Z,31.23
2018-07-19T15:34:22.293Z,31.15
2018-07-19T15:36:50.517Z,31.10
2018-07-19T15:39:18.720Z,31.11
2018-07-19T15:41:46.961Z,31.17
2018-07-19T15:44:15.209Z,31.19
2018-07-19T15:46:43.417Z,31.20
2018-07-19T15:49:11.629Z,31.21
2018-07-19T15:51:39.853Z,31.16
2018-07-19T15:54:08.088Z,31.11
2018-07-19T15:56:36.333Z,31.07
2018-07-19T15:59:04.585Z,31.06
2018-07-19T16:01:32.832Z,31.06
2018-07-19T16:04:01.016Z,31.16
2018-07-19T16:06:29.241Z,31.32
2018-07-19T16:08:57.460Z,31.67
2018-07-19T16:11:25.696Z,32.23
2018-07-19T16:13:53.964Z,32.56
2018-07-19T16:16:22.136Z,32.74
2018-07-19T16:18:50.399Z,32.98
2018-07-19T16:21:18.605Z,33.31
2018-07-19T16:23:46.824Z,33.35
2018-07-19T16:26:15.091Z,33.29
2018-07-19T16:28:43.301Z,33.39
2018-07-19T16:31:11.536Z,33.45
2018-07-19T16:33:39.805Z,33.50
2018-07-19T16:36:08.049Z,33.66
2018-07-19T16:38:36.284Z,33.46
2018-07-19T16:41:04.506Z,33.17
2018-07-19T16:43:32.721Z,32.71
2018-07-19T16:46:00.969Z,32.19
2018-07-19T16:48:29.189Z,31.65
2018-07-19T16:50:57.421Z,31.17
2018-07-19T16:53:25.788Z,30.76
2018-07-19T16:55:54.033Z,30.48
2018-07-19T16:58:22.345Z,30.19
2018-07-19T17:00:50.553Z,29.95
2018-07-19T17:03:18.884Z,29.77
2018-07-19T17:05:47.096Z,29.65
2018-07-19T17:08:15.336Z,29.55
2018-07-19T17:10:43.601Z,29.46
2018-07-19T17:13:12.109Z,29.37
2018-07-19T17:15:40.312Z,29.30
2018-07-19T17:18:08.660Z,29.25
2018-07-19T17:20:36.981Z,29.16
2018-07-19T17:23:05.226Z,29.10
2018-07-19T17:25:33.464Z,29.05
2018-07-19T17:28:01.677Z,29.00
2018-07-19T17:30:29.910Z,28.99
2018-07-19T17:32:58.116Z,28.97
2018-07-19T17:35:26.350Z,28.97
2018-07-19T17:37:54.596Z,29.01
2018-07-19T17:40:22.861Z,29.12
2018-07-19T17:42:51.072Z,29.23
2018-07-19T17:45:19.301Z,29.23
2018-07-19T17:47:47.509Z,29.19
2018-07-19T17:50:15.725Z,29.11
2018-07-19T17:52:44.801Z,29.03
2018-07-19T17:55:13.029Z,28.96
2018-07-19T17:57:41.241Z,28.88
2018-07-19T18:00:09.517Z,28.81
2018-07-19T18:02:37.734Z,28.76
2018-07-19T18:05:06.139Z,28.70
2018-07-19T18:07:34.356Z,28.65
2018-07-19T18:10:02.581Z,28.56
2018-07-19T18:12:30.803Z,28.48
2018-07-19T18:14:59.016Z,28.43
2018-07-19T18:17:27.233Z,28.38
2018-07-19T18:19:55.444Z,28.33
2018-07-19T18:22:23.679Z,28.30
2018-07-19T18:24:51.881Z,28.23
2018-07-19T18:27:20.104Z,28.15
2018-07-19T18:29:48.322Z,28.10
2018-07-19T18:32:16.536Z,28.03
2018-07-19T18:34:44.750Z,27.98
2018-07-19T18:37:12.977Z,27.93
2018-07-19T18:39:41.242Z,27.85
2018-07-19T18:42:09.527Z,27.80
2018-07-19T18:44:37.747Z,27.76
2018-07-19T18:47:06.099Z,27.65
2018-07-19T18:49:34.325Z,27.58
2018-07-19T18:52:02.549Z,27.50
2018-07-19T18:54:30.776Z,27.45
2018-07-19T18:56:58.977Z,27.40
2018-07-19T18:59:27.193Z,27.30
2018-07-19T19:01:55.414Z,27.23
2018-07-19T19:04:23.637Z,27.17
2018-07-19T19:06:51.850Z,27.08
2018-07-19T19:09:20.056Z,27.00
2018-07-19T19:11:48.294Z,26.90
2018-07-19T19:14:16.500Z,26.84
2018-07-19T19:16:44.744Z,26.67
2018-07-19T19:19:12.961Z,26.70
2018-07-19T19:21:41.172Z,26.56
2018-07-19T19:24:09.390Z,26.57
2018-07-19T19:26:37.628Z,26.49
2018-07-19T19:29:05.856Z,26.45
2018-07-19T19:31:34.057Z,26.32
2018-07-19T19:34:02.272Z,26.34
2018-07-19T19:36:30.573Z,26.26
2018-07-19T19:38:58.789Z,26.18
2018-07-19T19:41:27.621Z,26.18
2018-07-19T19:43:55.830Z,26.11
2018-07-19T19:46:24.087Z,26.07
2018-07-19T19:48:52.288Z,26.02
2018-07-19T19:51:20.501Z,25.96
2018-07-19T19:53:48.733Z,25.90
2018-07-19T19:56:16.948Z,25.85
2018-07-19T19:58:45.225Z,25.83
2018-07-19T20:01:13.380Z,25.80
2018-07-19T20:03:41.604Z,25.76
2018-07-19T20:06:09.852Z,25.70
2018-07-19T20:08:38.085Z,25.64
2018-07-19T20:11:06.330Z,25.59
2018-07-19T20:13:34.536Z,25.58
2018-07-19T20:16:02.778Z,25.58
2018-07-19T20:18:31.032Z,25.54
2018-07-19T20:20:59.239Z,25.50
2018-07-19T20:23:27.477Z,25.45
2018-07-19T20:25:56.161Z,25.41
2018-07-19T20:28:24.372Z,25.37
2018-07-19T20:30:52.604Z,25.29
2018-07-19T20:33:20.836Z,25.23
2018-07-19T20:35:49.091Z,25.19
2018-07-19T20:38:17.313Z,25.15
2018-07-19T20:40:45.520Z,25.10
2018-07-19T20:43:13.765Z,25.05
2018-07-19T20:45:41.993Z,25.02
2018-07-19T20:48:10.309Z,24.97
2018-07-19T20:50:38.525Z,24.93
2018-07-19T20:53:06.736Z,24.85
2018-07-19T20:55:35.039Z,24.87
2018-07-19T20:58:03.273Z,24.81
2018-07-19T21:00:31.497Z,24.77
2018-07-19T21:02:59.710Z,24.76
2018-07-19T21:05:27.961Z,24.74
2018-07-19T21:07:56.280Z,24.76
2018-07-19T21:10:24.507Z,24.75
2018-07-19T21:12:52.729Z,24.76
2018-07-19T21:15:20.972Z,24.78
2018-07-19T21:17:49.223Z,24.75
2018-07-19T21:20:17.460Z,24.75
2018-07-19T21:22:45.695Z,24.78
2018-07-19T21:25:13.946Z,24.79
2018-07-19T21:27:42.205Z,24.72
2018-07-19T21:30:10.505Z,24.76
2018-07-19T21:32:38.708Z,24.73
2018-07-19T21:35:06.945Z,24.68
2018-07-19T21:37:35.144Z,24.64
2018-07-19T21:40:03.400Z,24.61
2018-07-19T21:42:31.612Z,24.58
2018-07-19T21:44:59.844Z,24.59
2018-07-19T21:47:28.056Z,24.59
2018-07-19T21:49:56.314Z,24.61
2018-07-19T21:52:24.545Z,24.63
2018-07-19T21:54:52.773Z,24.65
2018-07-19T21:57:20.980Z,24.68
2018-07-19T21:59:49.209Z,24.69
2018-07-19T22:02:17.448Z,24.67
2018-07-19T22:04:45.649Z,24.62
2018-07-19T22:07:13.865Z,24.59
2018-07-19T22:09:42.126Z,24.54
2018-07-19T22:12:10.413Z,24.50
2018-07-19T22:14:38.664Z,24.48
2018-07-19T22:17:06.897Z,24.44
2018-07-19T22:19:35.103Z,24.40
2018-07-19T22:22:03.340Z,24.38
2018-07-19T22:24:31.572Z,24.37
2018-07-19T22:26:59.809Z,24.35
2018-07-19T22:29:28.049Z,24.35
2018-07-19T22:31:56.245Z,24.34
2018-07-19T22:34:24.463Z,24.34
2018-07-19T22:36:52.679Z,24.32
2018-07-19T22:39:20.900Z,24.30
2018-07-19T22:41:49.097Z,24.27
2018-07-19T22:44:17.356Z,24.24
2018-07-19T22:46:45.634Z,24.21
2018-07-19T22:49:13.880Z,24.18
2018-07-19T22:51:42.108Z,24.16
2018-07-19T22:54:10.320Z,24.14
2018-07-19T22:56:38.537Z,24.15
2018-07-19T22:59:06.824Z,24.13
2018-07-19T23:01:35.045Z,24.12
2018-07-19T23:04:03.269Z,24.11
2018-07-19T23:06:31.513Z,24.08
2018-07-19T23:08:59.737Z,24.04
2018-07-19T23:11:27.989Z,23.99
2018-07-19T23:13:56.251Z,23.93
2018-07-19T23:16:24.571Z,23.88
2018-07-19T23:18:52.772Z,23.82
2018-07-19T23:21:21.000Z,23.78
2018-07-19T23:23:49.205Z,23.74
2018-07-19T23:26:17.415Z,23.71
2018-07-19T23:28:45.648Z,23.68
2018-07-19T23:31:13.876Z,23.64
2018-07-19T23:33:42.134Z,23.60
2018-07-19T23:36:16.741Z,23.58
2018-07-19T23:38:55.258Z,23.55
2018-07-19T23:41:28.476Z,23.50
2018-07-19T23:44:02.205Z,23.48
2018-07-19T23:46:34.372Z,23.42
2018-07-19T23:49:06.946Z,23.38
2018-07-19T23:51:36.351Z,23.35
2018-07-19T23:54:04.587Z,23.31
2018-07-19T23:56:33.240Z,23.27
2018-07-19T23:59:01.461Z,23.22
